createdAt,value
2018-08-16T00:02:21.539Z,71.26
2018-08-16T00:04:52.612Z,71.35
2018-08-16T00:07:21.589Z,70.99
2018-08-16T00:09:51.697Z,70.94
2018-08-16T00:12:21.200Z,70.01
2018-08-16T00:14:52.245Z,70.58
2018-08-16T00:17:21.461Z,70.61
2018-08-16T00:19:50.634Z,70.87
2018-08-16T00:22:19.551Z,70.75
2018-08-16T00:24:49.479Z,70.80
2018-08-16T00:27:19.483Z,69.73
2018-08-16T00:29:48.396Z,69.94
2018-08-16T00:32:17.315Z,69.77
2018-08-16T00:34:47.291Z,70.81
2018-08-16T00:37:22.155Z,69.99
2018-08-16T00:39:55.166Z,70.62
2018-08-16T00:42:24.222Z,70.47
2018-08-16T00:44:54.245Z,70.82
2018-08-16T00:47:24.309Z,70.51
2018-08-16T00:49:53.294Z,70.16
2018-08-16T00:52:24.395Z,70.47
2018-08-16T00:54:54.404Z,70.73
2018-08-16T00:57:23.329Z,71.31
2018-08-16T00:59:54.423Z,70.63
2018-08-16T01:02:29.054Z,70.50
2018-08-16T01:04:59.997Z,71.01
2018-08-16T01:07:28.891Z,70.80
2018-08-16T01:09:59.876Z,71.01
2018-08-16T01:12:28.919Z,71.18
2018-08-16T01:15:05.443Z,71.42
2018-08-16T01:17:34.749Z,72.20
2018-08-16T01:20:04.960Z,71.84
2018-08-16T01:22:34.133Z,71.75
2018-08-16T01:25:10.589Z,71.93
2018-08-16T01:27:51.479Z,72.57
2018-08-16T01:30:20.565Z,72.27
2018-08-16T01:32:49.511Z,72.11
2018-08-16T01:35:19.443Z,72.40
2018-08-16T01:37:50.509Z,72.70
2018-08-16T01:40:19.707Z,72.71
2018-08-16T01:42:49.714Z,72.71
2018-08-16T01:45:18.748Z,72.56
2018-08-16T01:47:47.739Z,72.37
2018-08-16T01:50:18.724Z,72.03
2018-08-16T01:52:48.635Z,72.30
2018-08-16T01:55:17.674Z,72.18
2018-08-16T01:57:46.781Z,72.70
2018-08-16T02:00:20.626Z,72.60
2018-08-16T02:02:50.974Z,72.39
2018-08-16T02:05:24.413Z,72.85
2018-08-16T02:08:06.216Z,72.88
2018-08-16T02:10:40.056Z,72.64
2018-08-16T02:13:10.039Z,71.85
2018-08-16T02:15:39.450Z,72.07
2018-08-16T02:18:08.517Z,71.96
2018-08-16T02:20:38.639Z,71.65
2018-08-16T02:23:08.739Z,71.72
2018-08-16T02:25:37.888Z,71.69
2018-08-16T02:28:12.736Z,71.42
2018-08-16T02:30:42.713Z,72.06
2018-08-16T02:33:11.664Z,71.96
2018-08-16T02:35:41.564Z,72.18
2018-08-16T02:38:10.546Z,72.01
2018-08-16T02:40:39.527Z,72.76
2018-08-16T02:43:09.488Z,73.02
2018-08-16T02:45:38.507Z,72.29
2018-08-16T02:48:07.523Z,72.55
2018-08-16T02:50:36.435Z,72.45
2018-08-16T02:53:07.448Z,73.38
2018-08-16T02:55:36.504Z,73.25
2018-08-16T02:58:07.414Z,72.63
2018-08-16T03:00:36.495Z,73.61
2018-08-16T03:03:06.595Z,73.51
2018-08-16T03:05:36.627Z,73.69
2018-08-16T03:08:07.037Z,73.70
2018-08-16T03:10:39.555Z,73.16
2018-08-16T03:13:10.583Z,73.33
2018-08-16T03:15:40.557Z,73.40
2018-08-16T03:18:09.619Z,73.90
2018-08-16T03:20:38.719Z,74.13
2018-08-16T03:23:07.969Z,74.33
2018-08-16T03:25:36.955Z,73.88
2018-08-16T03:28:05.889Z,74.20
2018-08-16T03:30:34.838Z,74.57
2018-08-16T03:33:03.827Z,74.17
2018-08-16T03:35:33.015Z,74.51
2018-08-16T03:38:02.029Z,74.44
2018-08-16T03:40:31.026Z,74.99
2018-08-16T03:42:59.936Z,75.09
2018-08-16T03:45:30.009Z,74.91
2018-08-16T03:47:58.965Z,75.45
2018-08-16T03:50:28.035Z,75.26
2018-08-16T03:52:57.040Z,75.38
2018-08-16T03:55:26.061Z,75.50
2018-08-16T03:57:55.179Z,75.19
2018-08-16T04:00:24.166Z,75.51
2018-08-16T04:02:53.207Z,75.30
2018-08-16T04:05:22.116Z,75.82
2018-08-16T04:07:51.148Z,76.41
2018-08-16T04:10:20.109Z,75.84
2018-08-16T04:12:49.123Z,75.81
2018-08-16T04:15:18.110Z,76.01
2018-08-16T04:17:47.100Z,75.69
2018-08-16T04:20:16.069Z,75.93
2018-08-16T04:22:45.235Z,76.14
2018-08-16T04:25:14.160Z,75.93
2018-08-16T04:27:43.159Z,75.80
2018-08-16T04:30:12.530Z,75.85
2018-08-16T04:32:42.113Z,75.85
2018-08-16T04:35:11.131Z,75.57
2018-08-16T04:37:39.980Z,75.51
2018-08-16T04:40:09.905Z,75.62
2018-08-16T04:42:42.858Z,75.58
2018-08-16T04:45:11.863Z,75.50
2018-08-16T04:47:40.975Z,75.11
2018-08-16T04:50:11.779Z,75.60
2018-08-16T04:52:41.287Z,75.74
2018-08-16T04:55:10.679Z,75.91
2018-08-16T04:57:39.663Z,75.50
2018-08-16T05:00:11.318Z,75.72
2018-08-16T05:02:40.295Z,75.60
2018-08-16T05:05:09.469Z,75.45
2018-08-16T05:07:40.369Z,75.98
2018-08-16T05:10:15.007Z,76.21
2018-08-16T05:12:44.082Z,75.79
2018-08-16T05:15:13.727Z,76.18
2018-08-16T05:17:42.708Z,76.04
2018-08-16T05:20:13.089Z,76.30
2018-08-16T05:22:42.285Z,76.77
2018-08-16T05:25:11.227Z,77.29
2018-08-16T05:27:40.255Z,77.60
2018-08-16T05:30:11.526Z,77.06
2018-08-16T05:32:40.567Z,77.68
2018-08-16T05:35:09.965Z,77.81
2018-08-16T05:37:39.017Z,77.25
2018-08-16T05:40:09.450Z,77.62
2018-08-16T05:42:38.955Z,77.40
2018-08-16T05:45:08.493Z,77.62
2018-08-16T05:47:37.747Z,77.76
2018-08-16T05:50:09.074Z,78.07
2018-08-16T05:52:38.161Z,77.92
2018-08-16T05:55:07.615Z,78.03
2018-08-16T05:57:36.747Z,77.43
2018-08-16T06:00:08.254Z,77.65
2018-08-16T06:02:37.220Z,77.87
2018-08-16T06:05:07.077Z,76.95
2018-08-16T06:07:36.467Z,77.20
2018-08-16T06:10:06.394Z,77.08
2018-08-16T06:12:35.295Z,76.76
2018-08-16T06:15:04.949Z,77.16
2018-08-16T06:17:33.956Z,77.19
2018-08-16T06:20:02.925Z,76.55
2018-08-16T06:22:31.882Z,76.00
2018-08-16T06:25:00.944Z,75.62
2018-08-16T06:27:30.040Z,75.62
2018-08-16T06:29:59.023Z,75.59
2018-08-16T06:32:27.958Z,75.60
2018-08-16T06:34:57.075Z,75.69
2018-08-16T06:37:26.148Z,76.16
2018-08-16T06:39:55.270Z,76.25
2018-08-16T06:42:24.244Z,76.03
2018-08-16T06:44:53.200Z,75.70
2018-08-16T06:47:22.210Z,75.82
2018-08-16T06:49:51.124Z,75.96
2018-08-16T06:52:20.149Z,76.13
2018-08-16T06:54:49.109Z,75.89
2018-08-16T06:57:17.967Z,75.20
2018-08-16T06:59:47.144Z,74.96
2018-08-16T07:02:16.124Z,74.22
2018-08-16T07:04:45.166Z,74.26
2018-08-16T07:07:14.216Z,74.10
2018-08-16T07:09:43.210Z,72.83
2018-08-16T07:12:12.540Z,71.55
2018-08-16T07:14:41.495Z,69.83
2018-08-16T07:17:10.854Z,67.61
2018-08-16T07:19:40.000Z,66.52
2018-08-16T07:22:09.476Z,65.29
2018-08-16T07:24:38.574Z,65.39
2018-08-16T07:27:07.588Z,64.43
2018-08-16T07:29:36.585Z,64.12
2018-08-16T07:32:05.629Z,62.75
2018-08-16T07:34:34.680Z,62.51
2018-08-16T07:37:03.642Z,61.64
2018-08-16T07:39:32.660Z,60.52
2018-08-16T07:42:01.656Z,61.26
2018-08-16T07:44:31.693Z,60.64
2018-08-16T07:47:00.669Z,60.11
2018-08-16T07:49:29.684Z,59.40
2018-08-16T07:51:58.815Z,57.70
2018-08-16T07:54:27.739Z,57.47
2018-08-16T07:56:56.798Z,58.97
2018-08-16T07:59:25.811Z,58.67
2018-08-16T08:01:54.937Z,57.87
2018-08-16T08:04:24.950Z,58.32
2018-08-16T08:06:54.003Z,58.70
2018-08-16T08:09:23.114Z,58.10
2018-08-16T08:11:52.276Z,58.88
2018-08-16T08:14:21.183Z,58.72
2018-08-16T08:16:50.138Z,58.90
2018-08-16T08:19:19.116Z,58.45
2018-08-16T08:21:48.091Z,58.89
2018-08-16T08:24:17.086Z,59.69
2018-08-16T08:26:46.058Z,58.30
2018-08-16T08:29:15.050Z,59.29
2018-08-16T08:31:44.151Z,59.91
2018-08-16T08:34:13.076Z,59.16
2018-08-16T08:36:53.402Z,59.04
2018-08-16T08:39:22.425Z,58.83
2018-08-16T08:41:51.389Z,59.79
2018-08-16T08:44:22.511Z,59.11
2018-08-16T08:46:52.214Z,58.97
2018-08-16T08:49:21.417Z,58.59
2018-08-16T08:51:51.305Z,59.36
2018-08-16T08:54:38.439Z,59.60
2018-08-16T08:57:18.719Z,61.77
2018-08-16T08:59:53.091Z,61.76
2018-08-16T09:02:22.002Z,62.57
2018-08-16T09:04:50.967Z,62.81
2018-08-16T09:07:20.947Z,63.03
2018-08-16T09:11:01.710Z,63.62
2018-08-16T09:13:42.379Z,64.68
2018-08-16T09:16:13.937Z,64.93
2018-08-16T09:18:42.963Z,65.26
2018-08-16T09:21:12.611Z,64.96
2018-08-16T09:23:41.752Z,64.10
2018-08-16T09:26:16.160Z,63.74
2018-08-16T09:28:45.157Z,64.03
2018-08-16T09:31:25.881Z,63.58
2018-08-16T09:34:22.023Z,64.16
2018-08-16T09:36:50.995Z,63.63
2018-08-16T09:39:20.003Z,63.80
2018-08-16T09:41:50.053Z,63.89
2018-08-16T09:44:19.106Z,64.30
2018-08-16T09:47:14.789Z,63.77
2018-08-16T09:49:45.925Z,64.41
2018-08-16T09:52:15.485Z,64.78
2018-08-16T09:54:44.453Z,64.22
2018-08-16T09:57:14.255Z,64.90
2018-08-16T09:59:43.115Z,65.07
2018-08-16T10:02:14.349Z,65.07
2018-08-16T10:04:43.267Z,64.99
2018-08-16T10:07:12.180Z,65.40
2018-08-16T10:09:41.154Z,65.48
2018-08-16T10:12:10.197Z,64.84
2018-08-16T10:14:39.064Z,64.54
2018-08-16T10:17:08.081Z,63.95
2018-08-16T10:19:37.089Z,63.62
2018-08-16T10:22:06.108Z,63.68
2018-08-16T10:24:35.117Z,62.93
2018-08-16T10:27:04.264Z,63.31
2018-08-16T10:29:33.255Z,62.48
2018-08-16T10:32:03.339Z,62.28
2018-08-16T10:34:32.222Z,61.92
2018-08-16T10:37:01.429Z,62.11
2018-08-16T10:39:30.410Z,61.99
2018-08-16T10:41:59.425Z,61.71
2018-08-16T10:44:29.398Z,60.63
2018-08-16T10:46:58.275Z,60.43
2018-08-16T10:49:27.199Z,60.80
2018-08-16T10:51:56.237Z,60.59
2018-08-16T10:54:25.203Z,60.60
2018-08-16T10:56:54.226Z,60.44
2018-08-16T10:59:23.189Z,60.83
2018-08-16T11:01:52.147Z,60.33
2018-08-16T11:04:21.221Z,60.89
2018-08-16T11:06:50.179Z,60.95
2018-08-16T11:09:19.221Z,60.94
2018-08-16T11:11:48.148Z,60.55
2018-08-16T11:14:17.156Z,61.19
2018-08-16T11:16:46.192Z,60.81
2018-08-16T11:19:15.142Z,60.99
2018-08-16T11:21:44.163Z,60.60
2018-08-16T11:24:13.163Z,60.58
2018-08-16T11:26:42.118Z,59.90
2018-08-16T11:29:11.128Z,60.35
2018-08-16T11:31:40.106Z,59.79
2018-08-16T11:34:10.080Z,59.59
2018-08-16T11:36:39.180Z,59.99
2018-08-16T11:39:08.197Z,60.29
2018-08-16T11:41:37.231Z,60.03
2018-08-16T11:44:06.309Z,60.05
2018-08-16T11:46:35.418Z,60.30
2018-08-16T11:49:04.342Z,60.36
2018-08-16T11:51:33.262Z,60.33
2018-08-16T11:54:02.326Z,59.79
2018-08-16T11:56:31.241Z,59.64
2018-08-16T11:59:00.267Z,59.95
2018-08-16T12:01:29.311Z,59.62
2018-08-16T12:03:58.251Z,59.61
2018-08-16T12:06:27.523Z,59.67
2018-08-16T12:08:56.505Z,60.14
2018-08-16T12:11:25.629Z,60.34
2018-08-16T12:13:54.631Z,59.90
2018-08-16T12:16:23.656Z,59.36
2018-08-16T12:18:52.580Z,59.55
2018-08-16T12:21:21.518Z,59.76
2018-08-16T12:23:50.497Z,60.24
2018-08-16T12:26:19.536Z,60.40
2018-08-16T12:28:48.475Z,59.89
2018-08-16T12:31:17.559Z,60.40
2018-08-16T12:33:46.576Z,59.13
2018-08-16T12:36:15.655Z,58.82
2018-08-16T12:38:44.641Z,58.25
2018-08-16T12:41:13.780Z,58.03
2018-08-16T12:43:42.641Z,58.05
2018-08-16T12:46:11.685Z,58.38
2018-08-16T12:48:40.612Z,58.13
2018-08-16T12:51:09.520Z,58.12
2018-08-16T12:53:38.597Z,58.12
2018-08-16T12:56:08.613Z,57.86
2018-08-16T12:58:37.734Z,58.09
2018-08-16T13:01:06.819Z,57.86
2018-08-16T13:03:35.905Z,58.21
2018-08-16T13:06:05.001Z,57.94
2018-08-16T13:08:34.083Z,58.22
2018-08-16T13:11:03.157Z,58.11
2018-08-16T13:13:32.127Z,58.04
2018-08-16T13:16:01.056Z,57.34
2018-08-16T13:18:29.968Z,57.88
2018-08-16T13:20:59.110Z,57.42
2018-08-16T13:23:28.132Z,56.85
2018-08-16T13:25:57.105Z,57.32
2018-08-16T13:28:26.148Z,57.44
2018-08-16T13:30:55.180Z,57.76
2018-08-16T13:33:24.171Z,58.04
2018-08-16T13:35:53.137Z,57.41
2018-08-16T13:38:22.130Z,57.74
2018-08-16T13:40:51.204Z,57.38
2018-08-16T13:43:20.107Z,57.02
2018-08-16T13:45:49.126Z,57.06
2018-08-16T13:48:18.172Z,57.29
2018-08-16T13:50:47.298Z,57.39
2018-08-16T13:53:16.373Z,57.17
2018-08-16T13:55:45.432Z,57.95
2018-08-16T13:58:14.492Z,57.81
2018-08-16T14:00:43.508Z,57.55
2018-08-16T14:03:12.577Z,58.33
2018-08-16T14:05:41.595Z,58.77
2018-08-16T14:08:10.569Z,59.34
2018-08-16T14:10:39.639Z,59.66
2018-08-16T14:13:09.602Z,59.36
2018-08-16T14:15:39.453Z,59.01
2018-08-16T14:18:08.476Z,59.29
2018-08-16T14:20:37.616Z,59.29
2018-08-16T14:23:06.743Z,59.36
2018-08-16T14:25:35.717Z,59.15
2018-08-16T14:28:04.768Z,59.16
2018-08-16T14:30:33.780Z,59.08
2018-08-16T14:33:02.875Z,59.18
2018-08-16T14:35:31.868Z,59.41
2018-08-16T14:38:00.899Z,59.93
2018-08-16T14:40:29.841Z,59.85
2018-08-16T14:42:58.860Z,59.64
2018-08-16T14:45:27.880Z,59.73
2018-08-16T14:47:56.876Z,59.87
2018-08-16T14:50:25.789Z,60.32
2018-08-16T14:52:54.678Z,60.21
2018-08-16T14:55:23.611Z,60.34
2018-08-16T14:57:52.611Z,60.16
2018-08-16T15:00:21.691Z,59.48
2018-08-16T15:02:50.661Z,59.50
2018-08-16T15:05:19.715Z,59.68
2018-08-16T15:07:54.218Z,59.49
2018-08-16T15:10:28.866Z,58.87
2018-08-16T15:12:57.912Z,59.36
2018-08-16T15:15:27.040Z,59.37
2018-08-16T15:17:57.018Z,59.29
2018-08-16T15:20:26.090Z,59.17
2018-08-16T15:22:55.527Z,58.76
2018-08-16T15:25:24.462Z,59.25
2018-08-16T15:27:53.531Z,58.83
2018-08-16T15:30:22.567Z,59.09
2018-08-16T15:32:51.482Z,59.22
2018-08-16T15:35:20.432Z,59.60
2018-08-16T15:37:49.461Z,59.49
2018-08-16T15:40:18.595Z,59.40
2018-08-16T15:42:47.612Z,59.45
2018-08-16T15:45:16.627Z,59.63
2018-08-16T15:47:45.599Z,59.55
2018-08-16T15:50:14.556Z,59.69
2018-08-16T15:52:43.584Z,62.06
2018-08-16T15:55:12.552Z,62.83
2018-08-16T15:57:41.505Z,63.91
2018-08-16T16:00:11.830Z,66.33
2018-08-16T16:02:42.198Z,67.04
2018-08-16T16:05:11.317Z,66.97
2018-08-16T16:07:40.343Z,66.71
2018-08-16T16:10:09.736Z,66.90
2018-08-16T16:12:39.484Z,67.47
2018-08-16T16:15:09.774Z,67.61
2018-08-16T16:17:38.864Z,68.12
2018-08-16T16:20:07.964Z,67.64
2018-08-16T16:22:38.436Z,67.74
2018-08-16T16:25:07.904Z,67.44
2018-08-16T16:27:37.125Z,67.56
2018-08-16T16:30:07.649Z,67.90
2018-08-16T16:32:36.667Z,68.81
2018-08-16T16:35:06.872Z,70.98
2018-08-16T16:37:35.937Z,71.12
2018-08-16T16:40:05.855Z,70.11
2018-08-16T16:42:34.774Z,70.63
2018-08-16T16:45:03.915Z,69.45
2018-08-16T16:47:32.820Z,69.27
2018-08-16T16:50:01.806Z,69.41
2018-08-16T16:52:30.802Z,69.42
2018-08-16T16:54:59.858Z,69.02
2018-08-16T16:57:29.808Z,68.57
2018-08-16T16:59:58.740Z,69.06
2018-08-16T17:02:27.817Z,69.75
2018-08-16T17:04:56.798Z,70.22
2018-08-16T17:07:26.649Z,70.65
2018-08-16T17:09:55.548Z,70.15
2018-08-16T17:12:24.678Z,70.09
2018-08-16T17:14:53.628Z,71.08
2018-08-16T17:17:23.534Z,71.34
2018-08-16T17:19:52.423Z,71.07
2018-08-16T17:22:21.428Z,71.14
2018-08-16T17:24:50.452Z,71.27
2018-08-16T17:27:20.458Z,71.11
2018-08-16T17:29:49.479Z,70.16
2018-08-16T17:32:18.852Z,69.61
2018-08-16T17:34:47.923Z,70.86
2018-08-16T17:37:16.928Z,70.66
2018-08-16T17:39:46.106Z,71.28
2018-08-16T17:42:15.073Z,71.66
2018-08-16T17:44:44.009Z,70.94
2018-08-16T17:47:12.936Z,71.19
2018-08-16T17:49:42.023Z,71.43
2018-08-16T17:52:11.057Z,71.63
2018-08-16T17:54:39.957Z,70.74
2018-08-16T17:57:09.241Z,70.75
2018-08-16T17:59:39.165Z,69.95
2018-08-16T18:02:08.183Z,70.07
2018-08-16T18:04:37.083Z,69.86
2018-08-16T18:07:06.342Z,69.93
2018-08-16T18:09:35.310Z,69.92
2018-08-16T18:12:04.202Z,69.92
2018-08-16T18:14:33.224Z,70.38
2018-08-16T18:17:02.224Z,70.27
2018-08-16T18:19:31.211Z,70.08
2018-08-16T18:22:00.237Z,69.83
2018-08-16T18:24:29.224Z,70.74
2018-08-16T18:26:58.117Z,70.69
2018-08-16T18:29:27.203Z,71.16
2018-08-16T18:31:57.258Z,70.89
2018-08-16T18:34:26.383Z,71.03
2018-08-16T18:36:55.485Z,70.65
2018-08-16T18:39:24.544Z,71.53
2018-08-16T18:41:53.711Z,71.42
2018-08-16T18:44:22.732Z,71.38
2018-08-16T18:46:51.795Z,71.77
2018-08-16T18:49:20.784Z,71.27
2018-08-16T18:51:49.994Z,71.12
2018-08-16T18:54:19.022Z,71.56
2018-08-16T18:56:48.012Z,71.49
2018-08-16T18:59:17.053Z,71.16
2018-08-16T19:01:45.970Z,71.84
2018-08-16T19:04:14.884Z,72.09
2018-08-16T19:06:44.160Z,71.98
2018-08-16T19:09:13.128Z,71.48
2018-08-16T19:11:43.108Z,71.19
2018-08-16T19:14:12.190Z,71.23
2018-08-16T19:16:41.176Z,71.49
2018-08-16T19:19:10.383Z,71.68
2018-08-16T19:21:39.478Z,71.63
2018-08-16T19:24:08.616Z,72.25
2018-08-16T19:26:37.617Z,72.08
2018-08-16T19:29:06.566Z,71.75
2018-08-16T19:31:35.644Z,71.73
2018-08-16T19:34:04.698Z,72.07
2018-08-16T19:36:33.730Z,71.68
2018-08-16T19:39:02.700Z,71.66
2018-08-16T19:41:31.722Z,71.43
2018-08-16T19:44:00.633Z,71.37
2018-08-16T19:46:29.758Z,71.61
2018-08-16T19:48:58.823Z,71.50
2018-08-16T19:51:27.804Z,71.14
2018-08-16T19:53:56.810Z,71.70
2018-08-16T19:56:25.813Z,71.40
2018-08-16T19:58:54.848Z,71.35
2018-08-16T20:01:23.867Z,71.37
2018-08-16T20:03:52.924Z,71.63
2018-08-16T20:06:21.978Z,71.62
2018-08-16T20:08:51.010Z,72.63
2018-08-16T20:11:19.951Z,71.75
2018-08-16T20:13:49.066Z,71.65
2018-08-16T20:16:18.113Z,72.40
2018-08-16T20:18:52.545Z,72.89
2018-08-16T20:21:27.104Z,72.49
2018-08-16T20:23:56.114Z,72.25
2018-08-16T20:26:25.103Z,72.54
2018-08-16T20:28:54.245Z,73.25
2018-08-16T20:31:23.232Z,72.70
2018-08-16T20:33:52.195Z,73.46
2018-08-16T20:36:21.226Z,72.75
2018-08-16T20:38:50.224Z,72.24
2018-08-16T20:41:19.146Z,72.31
2018-08-16T20:43:48.242Z,72.22
2018-08-16T20:46:17.308Z,71.68
2018-08-16T20:48:46.283Z,71.25
2018-08-16T20:51:15.278Z,71.08
2018-08-16T20:53:44.178Z,71.32
2018-08-16T20:56:13.122Z,70.70
2018-08-16T20:58:42.210Z,70.74
2018-08-16T21:01:11.291Z,69.98
2018-08-16T21:03:40.343Z,70.19
2018-08-16T21:06:09.311Z,69.93
2018-08-16T21:08:38.330Z,69.89
2018-08-16T21:11:07.563Z,69.67
2018-08-16T21:13:36.584Z,70.33
2018-08-16T21:16:05.900Z,70.46
2018-08-16T21:18:34.976Z,70.16
2018-08-16T21:21:04.028Z,70.43
2018-08-16T21:23:33.014Z,70.94
2018-08-16T21:26:01.923Z,69.48
2018-08-16T21:28:31.003Z,68.55
2018-08-16T21:30:59.946Z,68.34
2018-08-16T21:33:28.958Z,68.86
2018-08-16T21:35:57.952Z,69.49
2018-08-16T21:38:26.952Z,69.50
2018-08-16T21:40:55.984Z,69.95
2018-08-16T21:43:24.934Z,70.29
2018-08-16T21:45:54.029Z,70.32
2018-08-16T21:48:23.027Z,70.42
2018-08-16T21:50:52.015Z,70.28
2018-08-16T21:53:20.994Z,71.75
2018-08-16T21:55:50.032Z,72.34
2018-08-16T21:58:19.001Z,72.80
2018-08-16T22:00:54.605Z,72.80
2018-08-16T22:03:25.018Z,73.28
2018-08-16T22:06:06.874Z,73.24
2018-08-16T22:08:45.689Z,74.34
2018-08-16T22:11:14.576Z,74.39
2018-08-16T22:13:43.568Z,74.96
2018-08-16T22:16:12.462Z,75.29
2018-08-16T22:18:41.386Z,74.29
2018-08-16T22:21:10.672Z,74.90
2018-08-16T22:23:39.665Z,74.19
2018-08-16T22:26:08.710Z,75.27
2018-08-16T22:28:37.639Z,75.58
2018-08-16T22:31:06.789Z,75.90
2018-08-16T22:33:35.706Z,75.68
2018-08-16T22:36:04.622Z,74.73
2018-08-16T22:38:33.664Z,74.82
2018-08-16T22:41:02.570Z,74.53
2018-08-16T22:43:31.488Z,75.34
2018-08-16T22:46:00.462Z,75.19
2018-08-16T22:48:29.384Z,74.93
2018-08-16T22:50:58.271Z,74.68
2018-08-16T22:53:27.283Z,75.51
2018-08-16T22:55:56.147Z,76.24
2018-08-16T22:58:25.085Z,76.33
2018-08-16T23:00:54.104Z,76.73
2018-08-16T23:03:23.014Z,76.36
2018-08-16T23:05:51.888Z,77.05
2018-08-16T23:08:20.780Z,75.67
2018-08-16T23:10:49.671Z,75.36
2018-08-16T23:13:18.653Z,76.03
2018-08-16T23:15:47.619Z,76.39
2018-08-16T23:18:16.500Z,76.23
2018-08-16T23:20:45.423Z,76.87
2018-08-16T23:23:14.329Z,77.65
2018-08-16T23:25:43.251Z,77.26
2018-08-16T23:28:12.147Z,77.05
2018-08-16T23:30:41.035Z,77.61
2018-08-16T23:33:10.126Z,77.42
2018-08-16T23:35:39.038Z,77.77
2018-08-16T23:38:08.000Z,77.50
2018-08-16T23:40:36.925Z,77.31
2018-08-16T23:43:05.911Z,77.80
2018-08-16T23:45:34.809Z,78.15
2018-08-16T23:48:14.983Z,77.87
2018-08-16T23:50:43.949Z,78.09
2018-08-16T23:53:12.822Z,78.35
2018-08-16T23:55:41.720Z,78.62
2018-08-16T23:58:10.611Z,79.41
